Terminal Aerodrome Forecast
Issued by NWS

Home | Current Version | Previous Version | Graphics & Text | Print | Product List | Glossary Off
Versions: 1 2 3 4 5 6 7 8 9 10 11 12

000
FTUS43 KDDC 132300
TAFHYS
TAF
KHYS 132320Z 1400/1424 35025G35KT 6SM -SN OVC010
     FM140500 36015G25KT 3SM BR BKN015
     FM141000 36020G28KT P6SM SCT010=

USA.gov is the U.S. government's official web portal to all federal, state and local government web resources and services.